Nearby METAR Reports

 

KHAO - Hamilton, Ohio, USA
Distance from station: WSW 7mi, 11km
Updated: 01,27/2023 12:53pm
Mostly cloudy
Mostly cloudy
 Wind from S
Wind: S 10 mph , 17 km/h, Gust: 18 mph , 30 km/h
Temperature: 36°F , 2°C
Wind Chill: 29°F , -2°C
Dew Point: 18°F , -8°C
Humidity: 48%
Barometer: 30.06 inHg , 1017.9 hPa
Clouds: Mostly cloudy
Visibility: 10 miles , 16 km
Cloud details: Partly cloudy 4000 ft
Mostly cloudy 4900 ft
2023/01/27 17:53 KHAO 271753Z AUTO 19009G16KT 150V230 10SM SCT040 BKN049 02/M08 A3006 RMK AO2 SLP185 T00221083 10028 21056 58039
KI68 - Lebanon, Ohio, USA
Distance from station: ENE 9mi, 15km
Updated: 01,27/2023 12:35pm
Clear
Clear
 Wind from S
Wind: S 20 mph , 31 km/h, Gust: 24 mph , 39 km/h
Temperature: 34°F , 1°C
Wind Chill: 23°F , -5°C
Dew Point: 19°F , -7°C
Humidity: 56%
Barometer: 30.07 inHg , 1018.3 hPa
Clouds: Clear
Visibility: 10 miles , 16 km
2023/01/27 17:35 KI68 271735Z AUTO 19017G21KT 10SM CLR 01/M07 A3007 RMK AO1 T00091072
KMWO - Middletown/Hook, Ohio, USA
Distance from station: N 10mi, 16km
Updated: 01,27/2023 12:35pm
Partly cloudy
Partly cloudy
 Wind from S
Wind: S 16 mph , 26 km/h, Gust: 22 mph , 35 km/h
Temperature: 37°F , 3°C
Wind Chill: 28°F , -2°C
Dew Point: 16°F , -9°C
Humidity: 41%
Barometer: 30.07 inHg , 1018.3 hPa
Clouds: Partly cloudy
Visibility: 10 miles , 16 km
Cloud details: Partly cloudy 3600 ft
Partly cloudy 6500 ft
2023/01/27 17:35 KMWO 271735Z AUTO 18014G19KT 10SM SCT036 SCT065 03/M09 A3007 RMK AO2 T00251091
 
KMGY - Dayton, Ohio, USA
Distance from station: NNE 17mi, 27km
Updated: 01,27/2023 12:53pm
Partly cloudy
Partly cloudy
 Wind from S
Wind: S 21 mph , 33 km/h, Gust: 29 mph , 46 km/h
Temperature: 34°F , 1°C
Wind Chill: 22°F , -6°C
Dew Point: 18°F , -8°C
Humidity: 51%
Barometer: 30.02 inHg , 1016.6 hPa
Clouds: Partly cloudy
Visibility: 10 miles , 16 km
Cloud details: Few Clouds 3300 ft
Partly cloudy 5000 ft
2023/01/27 17:53 KMGY 271753Z AUTO 19018G25KT 10SM FEW033 SCT050 01/M08 A3002 RMK AO2 PK WND 19026/1739 PRESFR SLP176 T00111083 10011 21056 58035
KLUK - Cincinnat/Lunken, Ohio, USA
Distance from station: S 20mi, 33km
Updated: 01,27/2023 12:53pm
Mostly cloudy
Mostly cloudy
 Wind from S
Wind: S 20 mph , 31 km/h, Gust: 26 mph , 43 km/h
Temperature: 37°F , 3°C
Wind Chill: 27°F , -3°C
Dew Point: 19°F , -7°C
Humidity: 48%
Barometer: 30.08 inHg , 1018.6 hPa
Clouds: Mostly cloudy
Visibility: 10 miles , 16 km
Cloud details: Mostly cloudy 6000 ft
2023/01/27 17:53 KLUK 271753Z 18017G23KT 10SM BKN060 03/M07 A3008 RMK AO2 SLP190 T00331067 10033 21072 58040
KI67 - Harrison, Ohio, USA
Distance from station: WSW 22mi, 35km
Updated: 01,27/2023 12:55pm
Mostly cloudy
Mostly cloudy
 Wind from SSW
Wind: SSW 14 mph , 22 km/h, Gust: 23 mph , 37 km/h
Temperature: 36°F , 2°C
Wind Chill: 27°F , -3°C
Dew Point: 23°F , -5°C
Humidity: 60%
Barometer: 30.04 inHg , 1017.3 hPa
Clouds: Mostly cloudy
Visibility: 10 miles , 16 km
Cloud details: Partly cloudy 3800 ft
Mostly cloudy 5000 ft
2023/01/27 17:55 KI67 271755Z AUTO 20012G20KT 10SM SCT038 BKN050 02/M05 A3004 RMK AO1
 
KOXD - Oxford, Ohio, USA
Distance from station: WNW 22mi, 35km
Updated: 01,27/2023 12:55pm
Mostly cloudy
Mostly cloudy
 Wind from S
Wind: S 14 mph , 22 km/h, Gust: 21 mph , 33 km/h
Temperature: 37°F , 3°C
Wind Chill: 28°F , -2°C
Dew Point: 21°F , -6°C
Humidity: 52%
Barometer: 30.00 inHg , 1015.9 hPa
Clouds: Mostly cloudy
Visibility: 10 miles , 16 km
Cloud details: Mostly cloudy 3500 ft
Mostly cloudy 4600 ft
2023/01/27 17:55 KOXD 271755Z AUTO 18012G18KT 10SM BKN035 BKN046 03/M06 A3000 RMK AO2 T00261065 10026 21058
KI69 - Batavia, Ohio, USA
Distance from station: SSE 23mi, 38km
Updated: 01,27/2023 12:55pm
Overcast
Overcast
 Wind from S
Wind: S 12 mph , 19 km/h
Temperature: 36°F , 2°C
Wind Chill: 28°F , -2°C
Dew Point: 19°F , -7°C
Humidity: 52%
Barometer: 30.08 inHg , 1018.6 hPa
Clouds: Overcast
Visibility: 10 miles , 16 km
Cloud details: Mostly cloudy 3500 ft
Overcast 6000 ft
2023/01/27 17:55 KI69 271755Z AUTO 19010KT 10SM BKN035 OVC060 02/M07 A3008 RMK AO2 T00221075 10022 21067
KCVG - Covington, Kentucky, USA
Distance from station: SSW 28mi, 45km
Updated: 01,27/2023 12:52pm
Partly cloudy
Partly cloudy
 Wind from S
Wind: S 16 mph , 26 km/h
Temperature: 36°F , 2°C
Wind Chill: 26°F , -3°C
Dew Point: 23°F , -5°C
Humidity: 60%
Barometer: 30.03 inHg , 1016.9 hPa
Clouds: Partly cloudy
Visibility: 10 miles , 16 km
Cloud details: Few Clouds 3600 ft
Few Clouds 5500 ft
Partly cloudy 25000 ft
2023/01/27 17:52 KCVG 271752Z 18014KT 10SM FEW036 FEW055 SCT250 02/M05 A3003 RMK AO2 PRESFR SLP177 T00221050 10022 21072 58037
 
KI19 - Dayton-Jackson, Ohio, USA
Distance from station: NE 29mi, 47km
Updated: 01,27/2023 12:55pm
Clear
Clear
 Wind from S
Wind: S 10 mph , 17 km/h, Gust: 20 mph , 31 km/h
Temperature: 32°F , 0°C
Wind Chill: 24°F , -4°C
Dew Point: 18°F , -8°C
Humidity: 55%
Barometer: 30.03 inHg , 1016.9 hPa
Clouds: Clear
Visibility: 10 miles , 16 km
2023/01/27 17:55 KI19 271755Z AUTO 19009G17KT 10SM CLR 00/M08 A3003 RMK AO2
KILN - Wilmington, Ohio, USA
Distance from station: E 32mi, 52km
Updated: 01,27/2023 12:54pm
Clear
Clear
 Wind from SSW
Wind: SSW 22 mph , 35 km/h, Gust: 28 mph , 44 km/h
Temperature: 34°F , 1°C
Wind Chill: 22°F , -6°C
Dew Point: 19°F , -7°C
Humidity: 56%
Barometer: 30.05 inHg , 1017.6 hPa
Clouds: Clear
Visibility: 10 miles , 16 km
2023/01/27 17:54 KILN 271754Z AUTO 21019G24KT 10SM CLR 01/M07 A3005 RMK AO2 SLP202 T00111067 10011 21056 58029
KRID - Richmond, Indiana, USA
Distance from station: NW 34mi, 55km
Updated: 01,27/2023 12:55pm
Mostly cloudy
Mostly cloudy
 Wind from S
Wind: S 20 mph , 31 km/h
Temperature: 30°F , -1°C
Wind Chill: 17°F , -8°C
Dew Point: 23°F , -5°C
Humidity: 75%
Barometer: 29.99 inHg , 1015.6 hPa
Clouds: Mostly cloudy
Visibility: 10 miles , 16 km
Cloud details: Partly cloudy 3100 ft
Mostly cloudy 4100 ft
Mostly cloudy 4800 ft
2023/01/27 17:55 KRID 271755Z AUTO 18017KT 10SM SCT031 BKN041 BKN048 M01/M05 A2999 RMK AO2
 
KFFO - Wright Paterson, Ohio, USA
Distance from station: NNE 35mi, 57km
Updated: 01,27/2023 12:55pm
Few Clouds
Few Clouds
 Wind from S
Wind: S 20 mph , 31 km/h, Gust: 25 mph , 41 km/h
Temperature: 34°F , 1°C
Wind Chill: 23°F , -5°C
Dew Point: 16°F , -9°C
Humidity: 48%
Barometer: 30.00 inHg , 1015.9 hPa
Clouds: Few Clouds
Visibility: 10 miles , 16 km
Cloud details: Few Clouds 17000 ft
2023/01/27 17:55 KFFO 271755Z 19017G22KT 10SM FEW170 01/M09 A3000 RMK AO2A SLP172 T0008
KDAY - Dayton, Ohio, USA
Distance from station: NNE 36mi, 58km
Updated: 01,27/2023 11:56am
Mostly cloudy
Mostly cloudy
 Wind from SSW
Wind: SSW 15 mph , 24 km/h
Temperature: 30°F , -1°C
Wind Chill: 19°F , -7°C
Dew Point: 16°F , -9°C
Humidity: 55%
Barometer: 30.06 inHg , 1017.9 hPa
Clouds: Mostly cloudy
Visibility: 10 miles , 16 km
Cloud details: Few Clouds 18000 ft
Partly cloudy 22000 ft
Mostly cloudy 25000 ft
2023/01/27 16:56 KDAY 271656Z 20013KT 10SM FEW180 SCT220 BKN250 M01/M09 A3006 RMK AO2 SLP193 T10061094
KSGH - Springfield Muni, Ohio, USA
Distance from station: NE 43mi, 69km
Updated: 01,27/2023 12:56pm
Clear
Clear
 Wind from S
Wind: S 12 mph , 19 km/h, Gust: 20 mph , 31 km/h
Temperature: 30°F , -1°C
Wind Chill: 20°F , -7°C
Dew Point: 18°F , -8°C
Humidity: 59%
Barometer: 30.03 inHg , 1016.9 hPa
Clouds: Clear
Visibility: 10 miles , 16 km
2023/01/27 17:56 KSGH 271756Z AUTO 19010G17KT 10SM CLR M01/M08 A3003 RMK AO2 PRESFR SLP184 60000 T10061083 11006 21056 58031
 
KK62 - Falmouth, Kentucky, USA
Distance from station: S 48mi, 77km
Updated: 01,27/2023 12:35pm
Overcast
Overcast
 Wind from SSW
Wind: SSW 12 mph , 19 km/h, Gust: 24 mph , 39 km/h
Temperature: 36°F , 2°C
Wind Chill: 28°F , -2°C
Dew Point: 21°F , -6°C
Humidity: 56%
Barometer: 30.10 inHg , 1019.3 hPa
Clouds: Overcast
Visibility: 10 miles , 16 km
Cloud details: Partly cloudy 3700 ft
Partly cloudy 4600 ft
Overcast 6000 ft
2023/01/27 17:35 KK62 271735Z AUTO 21010G21KT 10SM SCT037 SCT046 OVC060 02/M06 A3010 RMK AO2
KI23 - Washington Court, Ohio, USA
Distance from station: ENE 54mi, 86km
Updated: 01,27/2023 12:55pm
Clear
Clear
 Wind from S
Wind: S 16 mph , 26 km/h, Gust: 25 mph , 41 km/h
Temperature: 32°F , 0°C
Wind Chill: 21°F , -6°C
Dew Point: 19°F , -7°C
Humidity: 60%
Barometer: 30.06 inHg , 1017.9 hPa
Clouds: Clear
Visibility: 10 miles , 16 km
2023/01/27 17:55 KI23 271755Z AUTO 19014G22KT 10SM CLR 00/M07 A3006 RMK AO1
KVES - Versailles, Ohio, USA
Distance from station: N 56mi, 90km
Updated: 01,27/2023 12:30pm
Partly cloudy
Partly cloudy
 Wind from S
Wind: S 13 mph , 20 km/h, Gust: 21 mph , 33 km/h
Temperature: 30°F , -1°C
Wind Chill: 20°F , -7°C
Dew Point: 18°F , -8°C
Humidity: 59%
Barometer: 29.99 inHg , 1015.6 hPa
Clouds: Partly cloudy
Visibility: 10 miles , 16 km
Cloud details: Partly cloudy 5000 ft
2023/01/27 17:30 KVES 271730Z AUTO 19011G18KT 10SM SCT050 M01/M08 A2999 RMK AO2
 
KI74 - Urbana, Ohio, USA
Distance from station: NNE 62mi, 99km
Updated: 01,27/2023 12:35pm
Partly cloudy
Partly cloudy
 Wind from S
Wind: S 13 mph , 20 km/h, Gust: 20 mph , 31 km/h
Temperature: 28°F , -2°C
Wind Chill: 17°F , -8°C
Dew Point: 19°F , -7°C
Humidity: 69%
Barometer: 30.04 inHg , 1017.3 hPa
Clouds: Partly cloudy
Visibility: 10 miles , 16 km
Cloud details: Partly cloudy 6000 ft
2023/01/27 17:35 KI74 271735Z AUTO 17011G17KT 10SM SCT060 M02/M07 A3004 RMK AO2
KUYF - London, Ohio, USA
Distance from station: NE 62mi, 100km
Updated: 01,27/2023 12:35pm
Clear
Clear
 Wind from S
Wind: S 15 mph , 24 km/h, Gust: 21 mph , 33 km/h
Temperature: 30°F , -1°C
Wind Chill: 19°F , -7°C
Dew Point: 14°F , -10°C
Humidity: 51%
Barometer: 30.06 inHg , 1017.9 hPa
Clouds: Clear
Visibility: 10 miles , 16 km
2023/01/27 17:35 KUYF 271735Z AUTO 18013G18KT 10SM CLR M01/M10 A3006 RMK AO2